LSZR/ACH METAR and TAF weather

Enter ICAO airport designator
Station Type Date Time Source
LSZR METAR 2019/08/22 19:50 UTC NOAA

LSZR 221950Z AUTO 08004KT 9999 OVC028 17/15 Q1026


Station Type Date Time Source
LSZR Decoded METAR 2019/08/22 19:50 UTC NOAA

Station name not available
Aug 22, 2019 - 03:50 PM EDT / 2019.08.22 1950 UTC
Wind: from the E (080 degrees) at 5 MPH (4 KT):0
Visibility: greater than 7 mile(s):0
Sky conditions: overcast
Temperature: 62 F (17 C)
Dew Point: 59 F (15 C)
Relative Humidity: 88%
Pressure (altimeter): 30.30 in. Hg (1026 hPa)
ob: LSZR 221950Z AUTO 08004KT 9999 OVC028 17/15 Q1026
cycle: 20

Station Type Date Time Source
LSZR TAF 2014/12/22 20:03 UTC NOAA

TAF
AMD LSZR 222054Z 2220/2224 CNL

Example: see airport list